sensor_id;sensor_type;location;lat;lon;timestamp;P1;durP1;ratioP1;P2;durP2;ratioP2
25615;SDS011;13482;48.234;13.006;2023-03-17T00:01:49;2.08;;;1.17;;
25615;SDS011;13482;48.234;13.006;2023-03-17T00:04:23;1.92;;;1.20;;
25615;SDS011;13482;48.234;13.006;2023-03-17T00:06:53;2.60;;;1.40;;
25615;SDS011;13482;48.234;13.006;2023-03-17T00:09:20;2.00;;;1.17;;
25615;SDS011;13482;48.234;13.006;2023-03-17T00:11:48;2.13;;;1.20;;
25615;SDS011;13482;48.234;13.006;2023-03-17T00:14:16;1.90;;;1.20;;
25615;SDS011;13482;48.234;13.006;2023-03-17T00:16:48;1.92;;;1.17;;
25615;SDS011;13482;48.234;13.006;2023-03-17T00:19:27;2.20;;;1.40;;
25615;SDS011;13482;48.234;13.006;2023-03-17T00:21:59;2.38;;;1.10;;
25615;SDS011;13482;48.234;13.006;2023-03-17T00:24:28;2.38;;;1.15;;
25615;SDS011;13482;48.234;13.006;2023-03-17T00:26:56;3.00;;;1.38;;
25615;SDS011;13482;48.234;13.006;2023-03-17T00:29:24;3.13;;;1.48;;
25615;SDS011;13482;48.234;13.006;2023-03-17T00:31:52;2.50;;;1.45;;
25615;SDS011;13482;48.234;13.006;2023-03-17T00:34:21;2.75;;;1.30;;
25615;SDS011;13482;48.234;13.006;2023-03-17T00:36:48;2.35;;;1.38;;
25615;SDS011;13482;48.234;13.006;2023-03-17T00:39:17;2.63;;;1.30;;
25615;SDS011;13482;48.234;13.006;2023-03-17T00:41:44;2.38;;;1.40;;
25615;SDS011;13482;48.234;13.006;2023-03-17T00:44:10;2.38;;;1.30;;
25615;SDS011;13482;48.234;13.006;2023-03-17T00:46:39;2.45;;;1.10;;
25615;SDS011;13482;48.234;13.006;2023-03-17T00:49:18;2.38;;;1.33;;
25615;SDS011;13482;48.234;13.006;2023-03-17T00:51:47;1.85;;;1.17;;
25615;SDS011;13482;48.234;13.006;2023-03-17T00:54:16;3.03;;;1.23;;
25615;SDS011;13482;48.234;13.006;2023-03-17T00:56:46;1.70;;;1.15;;
25615;SDS011;13482;48.234;13.006;2023-03-17T00:59:19;2.42;;;1.20;;
25615;SDS011;13482;48.234;13.006;2023-03-17T01:01:52;2.00;;;1.40;;
25615;SDS011;13482;48.234;13.006;2023-03-17T01:04:20;2.13;;;0.90;;
25615;SDS011;13482;48.234;13.006;2023-03-17T01:06:48;2.25;;;1.25;;
25615;SDS011;13482;48.234;13.006;2023-03-17T01:09:17;2.42;;;1.33;;
25615;SDS011;13482;48.234;13.006;2023-03-17T01:16:58;2.03;;;1.00;;
25615;SDS011;13482;48.234;13.006;2023-03-17T01:19:25;2.05;;;1.05;;
25615;SDS011;13482;48.234;13.006;2023-03-17T01:21:52;2.63;;;1.30;;
25615;SDS011;13482;48.234;13.006;2023-03-17T01:24:19;2.58;;;1.40;;
25615;SDS011;13482;48.234;13.006;2023-03-17T01:26:46;2.13;;;1.30;;
25615;SDS011;13482;48.234;13.006;2023-03-17T01:29:14;2.45;;;1.33;;
25615;SDS011;13482;48.234;13.006;2023-03-17T01:31:41;2.72;;;1.10;;
25615;SDS011;13482;48.234;13.006;2023-03-17T01:34:10;1.85;;;1.25;;
25615;SDS011;13482;48.234;13.006;2023-03-17T01:36:37;2.47;;;1.17;;
25615;SDS011;13482;48.234;13.006;2023-03-17T01:39:05;1.95;;;1.30;;
25615;SDS011;13482;48.234;13.006;2023-03-17T01:41:33;2.50;;;1.40;;
25615;SDS011;13482;48.234;13.006;2023-03-17T01:44:02;2.90;;;1.50;;
25615;SDS011;13482;48.234;13.006;2023-03-17T01:46:31;1.88;;;1.17;;
25615;SDS011;13482;48.234;13.006;2023-03-17T01:49:23;3.20;;;1.42;;
25615;SDS011;13482;48.234;13.006;2023-03-17T01:51:58;2.63;;;1.38;;
25615;SDS011;13482;48.234;13.006;2023-03-17T01:54:36;4.07;;;1.27;;
25615;SDS011;13482;48.234;13.006;2023-03-17T01:57:22;2.70;;;1.30;;
25615;SDS011;13482;48.234;13.006;2023-03-17T01:59:58;3.10;;;1.50;;
25615;SDS011;13482;48.234;13.006;2023-03-17T02:02:36;2.75;;;1.27;;
25615;SDS011;13482;48.234;13.006;2023-03-17T02:05:08;1.90;;;1.20;;
25615;SDS011;13482;48.234;13.006;2023-03-17T02:07:38;2.78;;;1.38;;
25615;SDS011;13482;48.234;13.006;2023-03-17T02:10:06;2.58;;;1.20;;
25615;SDS011;13482;48.234;13.006;2023-03-17T02:12:35;4.97;;;1.70;;
25615;SDS011;13482;48.234;13.006;2023-03-17T02:15:02;2.35;;;1.45;;
25615;SDS011;13482;48.234;13.006;2023-03-17T02:17:31;3.25;;;1.30;;
25615;SDS011;13482;48.234;13.006;2023-03-17T02:22:55;2.00;;;1.13;;
25615;SDS011;13482;48.234;13.006;2023-03-17T02:25:23;2.33;;;1.30;;
25615;SDS011;13482;48.234;13.006;2023-03-17T02:27:52;2.15;;;1.27;;
25615;SDS011;13482;48.234;13.006;2023-03-17T02:30:25;1.90;;;1.13;;
25615;SDS011;13482;48.234;13.006;2023-03-17T02:32:53;2.08;;;1.40;;
25615;SDS011;13482;48.234;13.006;2023-03-17T02:35:21;2.17;;;1.40;;
25615;SDS011;13482;48.234;13.006;2023-03-17T02:37:48;2.40;;;1.40;;
25615;SDS011;13482;48.234;13.006;2023-03-17T02:40:16;3.53;;;1.60;;
25615;SDS011;13482;48.234;13.006;2023-03-17T02:42:44;2.97;;;1.40;;
25615;SDS011;13482;48.234;13.006;2023-03-17T02:45:12;2.17;;;1.40;;
25615;SDS011;13482;48.234;13.006;2023-03-17T02:47:40;2.63;;;1.50;;
25615;SDS011;13482;48.234;13.006;2023-03-17T02:50:10;2.90;;;1.80;;
25615;SDS011;13482;48.234;13.006;2023-03-17T02:52:48;2.30;;;1.27;;
25615;SDS011;13482;48.234;13.006;2023-03-17T02:55:17;2.85;;;1.40;;
25615;SDS011;13482;48.234;13.006;2023-03-17T02:57:44;3.08;;;1.42;;
25615;SDS011;13482;48.234;13.006;2023-03-17T03:00:12;2.28;;;1.50;;
25615;SDS011;13482;48.234;13.006;2023-03-17T03:02:39;4.78;;;1.70;;
25615;SDS011;13482;48.234;13.006;2023-03-17T03:05:07;1.90;;;1.23;;
25615;SDS011;13482;48.234;13.006;2023-03-17T03:07:36;2.58;;;1.50;;
25615;SDS011;13482;48.234;13.006;2023-03-17T03:10:03;2.20;;;1.23;;
25615;SDS011;13482;48.234;13.006;2023-03-17T03:12:31;1.95;;;1.23;;
25615;SDS011;13482;48.234;13.006;2023-03-17T03:14:58;2.67;;;1.45;;
25615;SDS011;13482;48.234;13.006;2023-03-17T03:17:26;2.13;;;1.40;;
25615;SDS011;13482;48.234;13.006;2023-03-17T03:19:53;3.25;;;1.60;;
25615;SDS011;13482;48.234;13.006;2023-03-17T03:22:20;2.65;;;1.38;;
25615;SDS011;13482;48.234;13.006;2023-03-17T03:24:47;2.88;;;1.60;;
25615;SDS011;13482;48.234;13.006;2023-03-17T03:27:15;2.75;;;1.40;;
25615;SDS011;13482;48.234;13.006;2023-03-17T03:29:42;2.60;;;1.35;;
25615;SDS011;13482;48.234;13.006;2023-03-17T03:32:09;2.50;;;1.23;;
25615;SDS011;13482;48.234;13.006;2023-03-17T03:34:36;2.58;;;1.38;;
25615;SDS011;13482;48.234;13.006;2023-03-17T03:37:03;1.63;;;1.08;;
25615;SDS011;13482;48.234;13.006;2023-03-17T03:39:31;2.30;;;1.33;;
25615;SDS011;13482;48.234;13.006;2023-03-17T03:41:58;2.28;;;1.30;;
25615;SDS011;13482;48.234;13.006;2023-03-17T03:44:26;2.65;;;1.73;;
25615;SDS011;13482;48.234;13.006;2023-03-17T03:46:53;2.60;;;1.60;;
25615;SDS011;13482;48.234;13.006;2023-03-17T03:49:20;3.05;;;1.58;;
25615;SDS011;13482;48.234;13.006;2023-03-17T03:51:47;1.92;;;1.30;;
25615;SDS011;13482;48.234;13.006;2023-03-17T03:54:15;1.90;;;1.08;;
25615;SDS011;13482;48.234;13.006;2023-03-17T03:56:42;2.03;;;1.20;;
25615;SDS011;13482;48.234;13.006;2023-03-17T03:59:11;3.08;;;1.10;;
25615;SDS011;13482;48.234;13.006;2023-03-17T04:01:38;2.60;;;1.60;;
25615;SDS011;13482;48.234;13.006;2023-03-17T04:04:06;2.10;;;1.30;;
25615;SDS011;13482;48.234;13.006;2023-03-17T04:06:33;2.47;;;1.35;;
25615;SDS011;13482;48.234;13.006;2023-03-17T04:09:01;3.17;;;1.50;;
25615;SDS011;13482;48.234;13.006;2023-03-17T04:11:28;2.08;;;1.40;;
25615;SDS011;13482;48.234;13.006;2023-03-17T04:13:56;2.20;;;1.27;;
25615;SDS011;13482;48.234;13.006;2023-03-17T04:16:23;2.22;;;1.35;;
25615;SDS011;13482;48.234;13.006;2023-03-17T04:18:50;1.90;;;1.15;;
25615;SDS011;13482;48.234;13.006;2023-03-17T04:21:17;3.00;;;1.60;;
25615;SDS011;13482;48.234;13.006;2023-03-17T04:23:45;3.10;;;1.70;;
25615;SDS011;13482;48.234;13.006;2023-03-17T04:26:13;2.55;;;1.67;;
25615;SDS011;13482;48.234;13.006;2023-03-17T04:28:40;2.80;;;1.67;;
25615;SDS011;13482;48.234;13.006;2023-03-17T04:31:07;2.65;;;1.75;;
25615;SDS011;13482;48.234;13.006;2023-03-17T04:33:37;3.28;;;1.90;;
25615;SDS011;13482;48.234;13.006;2023-03-17T04:36:06;3.58;;;1.80;;
25615;SDS011;13482;48.234;13.006;2023-03-17T04:38:35;3.10;;;1.80;;
25615;SDS011;13482;48.234;13.006;2023-03-17T04:41:02;2.78;;;1.67;;
25615;SDS011;13482;48.234;13.006;2023-03-17T04:43:29;2.95;;;1.83;;
25615;SDS011;13482;48.234;13.006;2023-03-17T04:45:56;2.47;;;1.48;;
25615;SDS011;13482;48.234;13.006;2023-03-17T04:48:24;3.13;;;1.75;;
25615;SDS011;13482;48.234;13.006;2023-03-17T04:50:51;2.55;;;1.50;;
25615;SDS011;13482;48.234;13.006;2023-03-17T04:53:18;2.47;;;1.60;;
25615;SDS011;13482;48.234;13.006;2023-03-17T04:55:45;2.00;;;1.40;;
25615;SDS011;13482;48.234;13.006;2023-03-17T04:58:12;3.92;;;2.08;;
25615;SDS011;13482;48.234;13.006;2023-03-17T05:00:55;3.83;;;2.10;;
25615;SDS011;13482;48.234;13.006;2023-03-17T05:03:23;2.78;;;1.80;;
25615;SDS011;13482;48.234;13.006;2023-03-17T05:05:53;3.10;;;1.80;;
25615;SDS011;13482;48.234;13.006;2023-03-17T05:08:20;2.70;;;2.00;;
25615;SDS011;13482;48.234;13.006;2023-03-17T05:10:48;3.17;;;1.92;;
25615;SDS011;13482;48.234;13.006;2023-03-17T05:13:16;3.28;;;2.00;;
25615;SDS011;13482;48.234;13.006;2023-03-17T05:15:48;2.80;;;1.90;;
25615;SDS011;13482;48.234;13.006;2023-03-17T05:18:18;3.25;;;2.22;;
25615;SDS011;13482;48.234;13.006;2023-03-17T05:20:46;4.57;;;2.50;;
25615;SDS011;13482;48.234;13.006;2023-03-17T05:23:13;3.97;;;1.98;;
25615;SDS011;13482;48.234;13.006;2023-03-17T05:25:41;3.20;;;1.90;;
25615;SDS011;13482;48.234;13.006;2023-03-17T05:28:08;3.33;;;1.60;;
25615;SDS011;13482;48.234;13.006;2023-03-17T05:30:35;2.80;;;1.65;;
25615;SDS011;13482;48.234;13.006;2023-03-17T05:33:03;2.53;;;1.55;;
25615;SDS011;13482;48.234;13.006;2023-03-17T05:35:31;2.58;;;1.50;;
25615;SDS011;13482;48.234;13.006;2023-03-17T05:37:58;2.67;;;1.65;;
25615;SDS011;13482;48.234;13.006;2023-03-17T05:40:25;2.58;;;1.65;;
25615;SDS011;13482;48.234;13.006;2023-03-17T05:42:53;2.80;;;1.33;;
25615;SDS011;13482;48.234;13.006;2023-03-17T05:45:20;3.10;;;1.73;;
25615;SDS011;13482;48.234;13.006;2023-03-17T05:47:47;2.50;;;1.55;;
25615;SDS011;13482;48.234;13.006;2023-03-17T05:50:14;4.47;;;1.92;;
25615;SDS011;13482;48.234;13.006;2023-03-17T05:52:42;3.10;;;1.58;;
25615;SDS011;13482;48.234;13.006;2023-03-17T05:55:09;3.75;;;1.67;;
25615;SDS011;13482;48.234;13.006;2023-03-17T05:57:36;2.60;;;1.42;;
25615;SDS011;13482;48.234;13.006;2023-03-17T06:00:04;3.15;;;1.70;;
25615;SDS011;13482;48.234;13.006;2023-03-17T06:02:31;2.85;;;1.60;;
25615;SDS011;13482;48.234;13.006;2023-03-17T06:05:00;2.53;;;1.50;;
25615;SDS011;13482;48.234;13.006;2023-03-17T06:07:27;2.83;;;1.65;;
25615;SDS011;13482;48.234;13.006;2023-03-17T06:10:15;2.50;;;1.55;;
25615;SDS011;13482;48.234;13.006;2023-03-17T06:12:42;2.45;;;1.40;;
25615;SDS011;13482;48.234;13.006;2023-03-17T06:15:09;3.40;;;2.28;;
25615;SDS011;13482;48.234;13.006;2023-03-17T06:17:36;4.25;;;2.35;;
25615;SDS011;13482;48.234;13.006;2023-03-17T06:20:04;3.42;;;2.00;;
25615;SDS011;13482;48.234;13.006;2023-03-17T06:22:32;3.72;;;1.90;;
25615;SDS011;13482;48.234;13.006;2023-03-17T06:24:59;3.53;;;1.85;;
25615;SDS011;13482;48.234;13.006;2023-03-17T06:27:26;2.42;;;1.65;;
25615;SDS011;13482;48.234;13.006;2023-03-17T06:29:53;3.30;;;1.90;;
25615;SDS011;13482;48.234;13.006;2023-03-17T06:32:21;2.95;;;1.50;;
25615;SDS011;13482;48.234;13.006;2023-03-17T06:34:48;2.83;;;1.65;;
25615;SDS011;13482;48.234;13.006;2023-03-17T06:37:16;3.15;;;1.60;;
25615;SDS011;13482;48.234;13.006;2023-03-17T06:39:43;2.58;;;1.50;;
25615;SDS011;13482;48.234;13.006;2023-03-17T06:42:11;2.33;;;1.38;;
25615;SDS011;13482;48.234;13.006;2023-03-17T06:44:38;2.90;;;1.50;;
25615;SDS011;13482;48.234;13.006;2023-03-17T06:47:06;2.10;;;1.30;;
25615;SDS011;13482;48.234;13.006;2023-03-17T06:49:33;2.20;;;1.30;;
25615;SDS011;13482;48.234;13.006;2023-03-17T06:52:00;2.03;;;1.23;;
25615;SDS011;13482;48.234;13.006;2023-03-17T06:54:27;2.13;;;1.33;;
25615;SDS011;13482;48.234;13.006;2023-03-17T06:56:54;2.65;;;1.30;;
25615;SDS011;13482;48.234;13.006;2023-03-17T06:59:23;2.15;;;1.40;;
25615;SDS011;13482;48.234;13.006;2023-03-17T07:01:50;2.58;;;1.15;;
25615;SDS011;13482;48.234;13.006;2023-03-17T07:04:17;2.20;;;1.10;;
25615;SDS011;13482;48.234;13.006;2023-03-17T07:06:47;2.85;;;1.30;;
25615;SDS011;13482;48.234;13.006;2023-03-17T07:09:14;2.00;;;1.27;;
25615;SDS011;13482;48.234;13.006;2023-03-17T07:11:42;2.35;;;1.17;;
25615;SDS011;13482;48.234;13.006;2023-03-17T07:14:09;3.00;;;1.20;;
25615;SDS011;13482;48.234;13.006;2023-03-17T07:16:36;2.75;;;1.27;;
25615;SDS011;13482;48.234;13.006;2023-03-17T07:19:03;2.20;;;1.27;;
25615;SDS011;13482;48.234;13.006;2023-03-17T07:21:30;1.90;;;1.30;;
25615;SDS011;13482;48.234;13.006;2023-03-17T07:23:58;2.00;;;1.27;;
25615;SDS011;13482;48.234;13.006;2023-03-17T07:26:25;2.13;;;1.30;;
25615;SDS011;13482;48.234;13.006;2023-03-17T07:28:54;2.28;;;1.30;;
25615;SDS011;13482;48.234;13.006;2023-03-17T07:31:21;2.72;;;1.35;;
25615;SDS011;13482;48.234;13.006;2023-03-17T07:33:49;2.58;;;1.30;;
25615;SDS011;13482;48.234;13.006;2023-03-17T07:36:17;2.10;;;1.40;;
25615;SDS011;13482;48.234;13.006;2023-03-17T07:38:44;2.10;;;1.10;;
25615;SDS011;13482;48.234;13.006;2023-03-17T07:41:11;3.65;;;1.42;;
25615;SDS011;13482;48.234;13.006;2023-03-17T07:43:39;1.90;;;1.15;;
25615;SDS011;13482;48.234;13.006;2023-03-17T07:46:07;2.33;;;1.33;;
25615;SDS011;13482;48.234;13.006;2023-03-17T07:48:36;2.30;;;1.35;;
25615;SDS011;13482;48.234;13.006;2023-03-17T07:51:25;2.38;;;1.25;;
25615;SDS011;13482;48.234;13.006;2023-03-17T07:53:53;2.22;;;1.27;;
25615;SDS011;13482;48.234;13.006;2023-03-17T07:56:29;1.75;;;1.20;;
25615;SDS011;13482;48.234;13.006;2023-03-17T07:58:57;1.85;;;1.10;;
25615;SDS011;13482;48.234;13.006;2023-03-17T08:01:25;2.15;;;1.30;;
25615;SDS011;13482;48.234;13.006;2023-03-17T08:03:53;2.92;;;1.20;;
25615;SDS011;13482;48.234;13.006;2023-03-17T08:06:22;2.83;;;1.20;;
25615;SDS011;13482;48.234;13.006;2023-03-17T08:08:51;2.58;;;1.20;;
25615;SDS011;13482;48.234;13.006;2023-03-17T08:11:19;2.40;;;1.10;;
25615;SDS011;13482;48.234;13.006;2023-03-17T08:13:48;1.45;;;1.10;;
25615;SDS011;13482;48.234;13.006;2023-03-17T08:16:16;1.95;;;1.25;;
25615;SDS011;13482;48.234;13.006;2023-03-17T08:18:43;2.85;;;1.17;;
25615;SDS011;13482;48.234;13.006;2023-03-17T08:21:10;2.25;;;1.30;;
25615;SDS011;13482;48.234;13.006;2023-03-17T08:23:41;1.90;;;1.10;;
25615;SDS011;13482;48.234;13.006;2023-03-17T08:26:08;2.30;;;1.20;;
25615;SDS011;13482;48.234;13.006;2023-03-17T08:28:35;1.98;;;1.33;;
25615;SDS011;13482;48.234;13.006;2023-03-17T08:31:07;2.08;;;1.23;;
25615;SDS011;13482;48.234;13.006;2023-03-17T08:33:52;3.20;;;1.00;;
25615;SDS011;13482;48.234;13.006;2023-03-17T08:36:22;1.88;;;1.10;;
25615;SDS011;13482;48.234;13.006;2023-03-17T08:38:51;2.03;;;1.08;;
25615;SDS011;13482;48.234;13.006;2023-03-17T08:41:20;2.28;;;1.30;;
25615;SDS011;13482;48.234;13.006;2023-03-17T08:43:49;2.38;;;1.30;;
25615;SDS011;13482;48.234;13.006;2023-03-17T08:48:56;2.03;;;1.02;;
25615;SDS011;13482;48.234;13.006;2023-03-17T08:51:25;2.67;;;1.50;;
25615;SDS011;13482;48.234;13.006;2023-03-17T08:53:55;1.75;;;1.02;;
25615;SDS011;13482;48.234;13.006;2023-03-17T08:56:24;1.95;;;1.20;;
25615;SDS011;13482;48.234;13.006;2023-03-17T08:58:51;2.10;;;1.27;;
25615;SDS011;13482;48.234;13.006;2023-03-17T09:01:19;2.00;;;1.20;;
25615;SDS011;13482;48.234;13.006;2023-03-17T09:03:46;4.13;;;1.20;;
25615;SDS011;13482;48.234;13.006;2023-03-17T09:06:14;1.92;;;1.25;;
25615;SDS011;13482;48.234;13.006;2023-03-17T09:08:42;2.63;;;1.20;;
25615;SDS011;13482;48.234;13.006;2023-03-17T09:11:13;1.92;;;1.15;;
25615;SDS011;13482;48.234;13.006;2023-03-17T09:13:43;2.10;;;1.20;;
25615;SDS011;13482;48.234;13.006;2023-03-17T09:16:15;3.17;;;1.42;;
25615;SDS011;13482;48.234;13.006;2023-03-17T09:18:43;1.58;;;1.13;;
25615;SDS011;13482;48.234;13.006;2023-03-17T09:21:12;2.85;;;1.33;;
25615;SDS011;13482;48.234;13.006;2023-03-17T09:23:40;2.75;;;1.50;;
25615;SDS011;13482;48.234;13.006;2023-03-17T09:26:08;2.92;;;1.40;;
25615;SDS011;13482;48.234;13.006;2023-03-17T09:28:35;2.13;;;1.20;;
25615;SDS011;13482;48.234;13.006;2023-03-17T09:31:04;2.10;;;1.35;;
25615;SDS011;13482;48.234;13.006;2023-03-17T09:33:37;2.20;;;1.13;;
25615;SDS011;13482;48.234;13.006;2023-03-17T09:36:06;2.35;;;1.38;;
25615;SDS011;13482;48.234;13.006;2023-03-17T09:38:37;2.00;;;1.30;;
25615;SDS011;13482;48.234;13.006;2023-03-17T09:43:58;2.60;;;1.27;;
25615;SDS011;13482;48.234;13.006;2023-03-17T09:47:07;2.15;;;1.20;;
25615;SDS011;13482;48.234;13.006;2023-03-17T09:50:09;2.40;;;1.05;;
25615;SDS011;13482;48.234;13.006;2023-03-17T09:52:43;2.92;;;1.38;;
25615;SDS011;13482;48.234;13.006;2023-03-17T09:55:15;2.47;;;1.20;;
25615;SDS011;13482;48.234;13.006;2023-03-17T09:57:56;2.80;;;1.10;;
25615;SDS011;13482;48.234;13.006;2023-03-17T10:00:28;1.92;;;1.15;;
25615;SDS011;13482;48.234;13.006;2023-03-17T10:02:56;2.63;;;1.30;;
25615;SDS011;13482;48.234;13.006;2023-03-17T10:05:28;2.30;;;1.33;;
25615;SDS011;13482;48.234;13.006;2023-03-17T10:08:13;2.67;;;1.25;;
25615;SDS011;13482;48.234;13.006;2023-03-17T10:16:44;1.50;;;1.08;;
25615;SDS011;13482;48.234;13.006;2023-03-17T10:19:22;3.53;;;1.25;;
25615;SDS011;13482;48.234;13.006;2023-03-17T10:21:59;2.70;;;1.40;;
25615;SDS011;13482;48.234;13.006;2023-03-17T10:24:32;1.73;;;1.30;;
25615;SDS011;13482;48.234;13.006;2023-03-17T10:27:02;2.38;;;1.20;;
25615;SDS011;13482;48.234;13.006;2023-03-17T10:29:31;1.67;;;1.10;;
25615;SDS011;13482;48.234;13.006;2023-03-17T10:31:59;3.10;;;1.35;;
25615;SDS011;13482;48.234;13.006;2023-03-17T10:34:27;1.90;;;1.20;;
25615;SDS011;13482;48.234;13.006;2023-03-17T10:37:04;2.55;;;1.20;;
25615;SDS011;13482;48.234;13.006;2023-03-17T10:39:43;1.80;;;1.02;;
25615;SDS011;13482;48.234;13.006;2023-03-17T10:42:22;1.95;;;1.20;;
25615;SDS011;13482;48.234;13.006;2023-03-17T10:45:05;1.95;;;1.20;;
25615;SDS011;13482;48.234;13.006;2023-03-17T10:47:50;1.45;;;1.00;;
25615;SDS011;13482;48.234;13.006;2023-03-17T10:50:21;2.17;;;1.10;;
25615;SDS011;13482;48.234;13.006;2023-03-17T10:52:58;2.08;;;1.27;;
25615;SDS011;13482;48.234;13.006;2023-03-17T10:55:30;2.10;;;1.13;;
25615;SDS011;13482;48.234;13.006;2023-03-17T10:58:15;1.90;;;1.10;;
25615;SDS011;13482;48.234;13.006;2023-03-17T11:03:27;1.70;;;1.08;;
25615;SDS011;13482;48.234;13.006;2023-03-17T11:06:04;1.73;;;1.00;;
25615;SDS011;13482;48.234;13.006;2023-03-17T11:08:35;1.70;;;0.90;;
25615;SDS011;13482;48.234;13.006;2023-03-17T11:11:24;2.05;;;1.27;;
25615;SDS011;13482;48.234;13.006;2023-03-17T11:14:19;1.50;;;0.98;;
25615;SDS011;13482;48.234;13.006;2023-03-17T11:17:12;1.80;;;1.10;;
25615;SDS011;13482;48.234;13.006;2023-03-17T11:19:56;1.70;;;1.10;;
25615;SDS011;13482;48.234;13.006;2023-03-17T11:22:53;2.45;;;1.20;;
25615;SDS011;13482;48.234;13.006;2023-03-17T11:25:32;1.85;;;1.20;;
25615;SDS011;13482;48.234;13.006;2023-03-17T11:28:11;1.40;;;1.00;;
25615;SDS011;13482;48.234;13.006;2023-03-17T11:30:54;2.13;;;1.02;;
25615;SDS011;13482;48.234;13.006;2023-03-17T11:39:11;1.85;;;1.02;;
25615;SDS011;13482;48.234;13.006;2023-03-17T11:41:57;1.77;;;1.10;;
25615;SDS011;13482;48.234;13.006;2023-03-17T11:44:53;2.42;;;1.15;;
25615;SDS011;13482;48.234;13.006;2023-03-17T11:53:58;1.65;;;1.00;;
25615;SDS011;13482;48.234;13.006;2023-03-17T11:57:07;1.88;;;1.08;;
25615;SDS011;13482;48.234;13.006;2023-03-17T11:59:44;2.17;;;1.00;;
25615;SDS011;13482;48.234;13.006;2023-03-17T12:02:40;2.97;;;1.10;;
25615;SDS011;13482;48.234;13.006;2023-03-17T12:05:22;1.88;;;1.10;;
25615;SDS011;13482;48.234;13.006;2023-03-17T12:10:51;1.92;;;1.20;;
25615;SDS011;13482;48.234;13.006;2023-03-17T12:16:25;1.63;;;1.00;;
25615;SDS011;13482;48.234;13.006;2023-03-17T12:19:26;2.00;;;1.05;;
25615;SDS011;13482;48.234;13.006;2023-03-17T12:22:17;1.95;;;1.23;;
25615;SDS011;13482;48.234;13.006;2023-03-17T12:28:26;2.35;;;1.15;;
25615;SDS011;13482;48.234;13.006;2023-03-17T12:31:05;1.95;;;1.10;;
25615;SDS011;13482;48.234;13.006;2023-03-17T12:33:52;1.60;;;1.00;;
25615;SDS011;13482;48.234;13.006;2023-03-17T12:36:34;1.52;;;0.98;;
25615;SDS011;13482;48.234;13.006;2023-03-17T12:39:07;1.88;;;1.08;;
25615;SDS011;13482;48.234;13.006;2023-03-17T12:48:13;1.50;;;1.13;;
25615;SDS011;13482;48.234;13.006;2023-03-17T12:54:28;2.03;;;1.00;;
25615;SDS011;13482;48.234;13.006;2023-03-17T12:57:01;3.70;;;1.40;;
25615;SDS011;13482;48.234;13.006;2023-03-17T12:59:40;1.83;;;1.00;;
25615;SDS011;13482;48.234;13.006;2023-03-17T13:04:53;1.95;;;1.30;;
25615;SDS011;13482;48.234;13.006;2023-03-17T13:07:30;2.25;;;1.35;;
25615;SDS011;13482;48.234;13.006;2023-03-17T13:10:11;3.03;;;1.38;;
25615;SDS011;13482;48.234;13.006;2023-03-17T13:26:15;2.72;;;1.30;;
25615;SDS011;13482;48.234;13.006;2023-03-17T13:28:47;2.05;;;1.60;;
25615;SDS011;13482;48.234;13.006;2023-03-17T13:33:53;2.22;;;1.13;;
25615;SDS011;13482;48.234;13.006;2023-03-17T13:45:30;2.00;;;1.30;;
25615;SDS011;13482;48.234;13.006;2023-03-17T13:48:23;1.75;;;1.38;;
25615;SDS011;13482;48.234;13.006;2023-03-17T13:53:35;4.50;;;1.40;;
25615;SDS011;13482;48.234;13.006;2023-03-17T13:57:20;2.45;;;1.30;;
25615;SDS011;13482;48.234;13.006;2023-03-17T13:59:16;2.20;;;1.50;;
25615;SDS011;13482;48.234;13.006;2023-03-17T14:12:41;1.63;;;0.98;;
25615;SDS011;13482;48.234;13.006;2023-03-17T14:15:44;2.05;;;1.33;;
25615;SDS011;13482;48.234;13.006;2023-03-17T14:18:20;1.77;;;1.15;;
25615;SDS011;13482;48.234;13.006;2023-03-17T14:21:00;2.22;;;1.33;;
25615;SDS011;13482;48.234;13.006;2023-03-17T14:23:36;2.70;;;1.50;;
25615;SDS011;13482;48.234;13.006;2023-03-17T14:26:03;2.40;;;1.52;;
25615;SDS011;13482;48.234;13.006;2023-03-17T14:28:32;2.42;;;1.50;;
25615;SDS011;13482;48.234;13.006;2023-03-17T14:31:02;3.72;;;1.55;;
25615;SDS011;13482;48.234;13.006;2023-03-17T14:33:37;2.00;;;1.23;;
25615;SDS011;13482;48.234;13.006;2023-03-17T14:36:08;3.72;;;1.83;;
25615;SDS011;13482;48.234;13.006;2023-03-17T14:38:44;2.33;;;1.65;;
25615;SDS011;13482;48.234;13.006;2023-03-17T14:41:16;1.77;;;1.30;;
25615;SDS011;13482;48.234;13.006;2023-03-17T14:43:56;2.00;;;1.33;;
25615;SDS011;13482;48.234;13.006;2023-03-17T14:49:09;3.15;;;1.58;;
25615;SDS011;13482;48.234;13.006;2023-03-17T14:51:42;3.47;;;1.60;;
25615;SDS011;13482;48.234;13.006;2023-03-17T14:54:53;2.42;;;1.60;;
25615;SDS011;13482;48.234;13.006;2023-03-17T14:57:03;1.98;;;1.40;;
25615;SDS011;13482;48.234;13.006;2023-03-17T15:02:51;2.40;;;1.70;;
25615;SDS011;13482;48.234;13.006;2023-03-17T15:07:44;2.58;;;1.70;;
25615;SDS011;13482;48.234;13.006;2023-03-17T15:10:13;2.47;;;1.58;;
25615;SDS011;13482;48.234;13.006;2023-03-17T15:12:45;3.00;;;1.65;;
25615;SDS011;13482;48.234;13.006;2023-03-17T15:15:21;2.58;;;1.45;;
25615;SDS011;13482;48.234;13.006;2023-03-17T15:17:53;2.10;;;1.40;;
25615;SDS011;13482;48.234;13.006;2023-03-17T15:20:25;2.50;;;1.50;;
25615;SDS011;13482;48.234;13.006;2023-03-17T15:22:57;3.05;;;1.63;;
25615;SDS011;13482;48.234;13.006;2023-03-17T15:25:32;2.63;;;1.67;;
25615;SDS011;13482;48.234;13.006;2023-03-17T15:28:09;3.88;;;1.90;;
25615;SDS011;13482;48.234;13.006;2023-03-17T15:30:48;3.53;;;1.70;;
25615;SDS011;13482;48.234;13.006;2023-03-17T15:33:28;3.05;;;1.75;;
25615;SDS011;13482;48.234;13.006;2023-03-17T15:36:02;2.28;;;1.65;;
25615;SDS011;13482;48.234;13.006;2023-03-17T15:38:30;2.30;;;1.50;;
25615;SDS011;13482;48.234;13.006;2023-03-17T15:40:59;2.40;;;1.77;;
25615;SDS011;13482;48.234;13.006;2023-03-17T15:43:26;2.45;;;1.73;;
25615;SDS011;13482;48.234;13.006;2023-03-17T15:45:54;2.80;;;1.73;;
25615;SDS011;13482;48.234;13.006;2023-03-17T15:48:27;3.00;;;1.80;;
25615;SDS011;13482;48.234;13.006;2023-03-17T15:50:58;2.83;;;1.70;;
25615;SDS011;13482;48.234;13.006;2023-03-17T15:53:26;3.33;;;2.25;;
25615;SDS011;13482;48.234;13.006;2023-03-17T15:55:55;2.38;;;1.83;;
25615;SDS011;13482;48.234;13.006;2023-03-17T15:58:22;2.47;;;1.63;;
25615;SDS011;13482;48.234;13.006;2023-03-17T16:00:52;2.65;;;1.63;;
25615;SDS011;13482;48.234;13.006;2023-03-17T16:06:03;3.22;;;1.77;;
25615;SDS011;13482;48.234;13.006;2023-03-17T16:08:39;3.40;;;1.85;;
25615;SDS011;13482;48.234;13.006;2023-03-17T16:11:09;2.53;;;1.60;;
25615;SDS011;13482;48.234;13.006;2023-03-17T16:13:54;3.45;;;1.90;;
25615;SDS011;13482;48.234;13.006;2023-03-17T16:16:25;2.75;;;1.60;;
25615;SDS011;13482;48.234;13.006;2023-03-17T16:19:03;2.67;;;1.70;;
25615;SDS011;13482;48.234;13.006;2023-03-17T16:21:51;3.13;;;1.70;;
25615;SDS011;13482;48.234;13.006;2023-03-17T16:24:21;3.58;;;1.83;;
25615;SDS011;13482;48.234;13.006;2023-03-17T16:26:50;2.60;;;1.60;;
25615;SDS011;13482;48.234;13.006;2023-03-17T16:29:18;4.03;;;1.90;;
25615;SDS011;13482;48.234;13.006;2023-03-17T16:31:48;3.03;;;1.95;;
25615;SDS011;13482;48.234;13.006;2023-03-17T16:34:17;4.22;;;1.80;;
25615;SDS011;13482;48.234;13.006;2023-03-17T16:36:48;3.22;;;1.92;;
25615;SDS011;13482;48.234;13.006;2023-03-17T16:39:17;3.00;;;1.95;;
25615;SDS011;13482;48.234;13.006;2023-03-17T16:41:48;3.35;;;1.48;;
25615;SDS011;13482;48.234;13.006;2023-03-17T16:44:16;3.05;;;2.00;;
25615;SDS011;13482;48.234;13.006;2023-03-17T16:46:46;4.40;;;2.05;;